Transaviabaltika L410 at Vilnius on Sep 10th 2020, burst tyre on landing and veered off the runway

Last Update: September 10, 2020 / 22:40:53 GMT/Zulu time

Bookmark this article
Incident Facts

Date of incident
Sep 10, 2020

Classification
Incident

Flight number
KTB-311

Aircraft Registration
LY-AVZ

Aircraft Type
Let L-410 Turbolet

ICAO Type Designator
L410

Airport ICAO Code
EYVI

A Transaviabaltika Let L-410, registration LY-AVZ performing flight KTB-311 from Minsk National (Belarus) to Vilnius (Lithuania), landed on Vilnius' runway 19 at 14:19L (11:19Z) but burst a tyre and subsequently veered left off the runway onto a paved surface that used to be a former runway. There were no injuries, the aircraft sustained minor damage.

The airport was closed for about 90 minutes until the aircraft was towed to the apron.

Related NOTAM:
A2802/20 NOTAMN
Q) EYVL/QMRLC/IV/NBO/A /000/999/5438N02517E005
A) EYVI B) 2009101215 C) 2009101300 EST
E) RWY 01/19 CLSD TO ALL TFC

Metars:
EYVI 101320Z 30015G26KT 9999 VCSH SCT033CB BKN074 17/07 Q1012 NOSIG=
EYVI 101250Z 29015KT 260V330 9999 SCT046CB BKN075 17/07 Q1012 NOSIG=
EYVI 101220Z 29013KT 270V330 9999 BKN045CB 17/08 Q1012 NOSIG=
EYVI 101150Z 28018KT 9999 SCT042CB BKN047 BKN065 18/07 Q1011 NOSIG=
EYVI 101120Z 29016G27KT 260V320 9999 SCT039TCU BKN057 17/07 Q1011 NOSIG=
EYVI 101050Z 29016KT 9999 SCT041 16/08 Q1011 NOSIG=
EYVI 101020Z 30018KT 9999 BKN044 16/07 Q1010 NOSIG=
EYVI 100950Z 30017KT 270V330 9999 BKN032 16/08 Q1010 NOSIG=
EYVI 100920Z 29020KT 9999 BKN032 16/08 Q1010 NOSIG=
EYVI 100850Z 28017G27KT 9999 BKN029 16/09 Q1010 NOSIG=
EYVI 100820Z 29016KT 260V320 9999 BKN026 15/09 Q1009 NOSIG=
Incident Facts

Date of incident
Sep 10, 2020

Classification
Incident

Flight number
KTB-311

Aircraft Registration
LY-AVZ

Aircraft Type
Let L-410 Turbolet

ICAO Type Designator
L410

Airport ICAO Code
EYVI

This article is published under license from Avherald.com. © of text by Avherald.com.
Article source

You can read 4 more free articles without a subscription.

Subscribe now and continue reading without any limits!

Are you a subscriber?
Login
Subscribe

Read unlimited articles and receive our daily update briefing. Gain better insights into what is happening in commercial aviation safety.

Free newsletter

Want to know more and stay ahead? Get our free weekly newsletter and join 4944 existing subscribers.

By subscribing, you accept our terms and conditions and confirm that you've read our privacy policy.

Send tip

Support AeroInside by sending a small tip amount.

Newest articles

Subscribe today

Are you researching aviation incidents? Get access to AeroInside Insights, unlimited read access and receive the daily newsletter.

Pick your plan and subscribe

Partner

Blockaviation logo

A new way to document and demonstrate airworthiness compliance and aircraft value. Find out more.

Virtual Speech logo

ELITE Simulation Solutions is a leading global provider of Flight Simulation Training Devices, IFR training software as well as flight controls and related services. Find out more.

Get updates

Never miss an article from AeroInside. Subscribe to our free weekly newsletter and join 4944 existing subscribers.

By subscribing, you accept our terms and conditions and that you've read our privacy policy.

AeroInside Blog
Popular aircraft
Airbus A320
Boeing 737-800
Boeing 737-800 MAX
Popular airlines
American Airlines
United
Delta
Air Canada
Lufthansa
British Airways